| time (UTC) | temp F | wind direction | speed MPH | gust MPH | rain 1hr in | rain 24hr in | rain mn in | humidity % | barometer mb |
| 20260509223635 | 63 | 12 | 1.0 | 2.0 | 0.00 | 0.00 | 0.00 | 80 | 1025.9 |
| 20260509222135 | 61 | 225 | 1.0 | 4.0 | 0.00 | 0.00 | 0.00 | 84 | 1026.0 |
| 20260509220625 | 57 | 215 | 0.0 | 0.0 | 0.00 | 0.00 | 0.00 | 86 | 1026.0 |
| 20260509215102 | 56 | 215 | 0.0 | 1.0 | 0.00 | 0.00 | 0.00 | 88 | 1026.1 |
| 20260509213604 | 55 | 215 | 0.0 | 0.0 | 0.00 | 0.00 | 0.00 | 91 | 1025.8 |
| 20260509212743 | 53 | 215 | 0.0 | 2.0 | 0.00 | 0.00 | 0.00 | 92 | 1025.5 |
| 20260509205055 | 52 | 215 | 0.0 | 3.0 | 0.00 | 0.00 | 0.00 | 91 | 1025.0 |
| 20260509202047 | 52 | 192 | 0.0 | 2.0 | 0.00 | 0.00 | 0.00 | 91 | 1024.8 |
| 20260509200547 | 52 | 85 | 0.0 | 2.0 | 0.00 | 0.00 | 0.00 | 91 | 1024.5 |
| 20260509195047 | 52 | 286 | 0.0 | 4.0 | 0.00 | 0.00 | 0.00 | 91 | 1024.5 |
| 20260509193550 | 52 | 214 | 0.0 | 0.0 | 0.00 | 0.00 | 0.00 | 91 | 1024.3 |
| 20260509192729 | 51 | 146 | 0.0 | 3.0 | 0.00 | 0.00 | 0.00 | 90 | 1024.1 |
| 20260509192558 | 51 | 240 | 1.0 | 3.0 | 0.00 | 0.00 | 0.00 | 90 | 1024.2 |
| 20260509190352 | 51 | 309 | 0.0 | 2.0 | 0.00 | 0.00 | 0.00 | 89 | 1024.1 |
| 20260509181938 | 51 | 309 | 0.0 | 0.0 | 0.00 | 0.00 | 0.00 | 89 | 1024.0 |
| 20260509181131 | 51 | 309 | 0.0 | 1.0 | 0.00 | 0.00 | 0.00 | 89 | 1024.1 |
| 20260509174936 | 51 | 309 | 0.0 | 0.0 | 0.00 | 0.00 | 0.00 | 89 | 1023.9 |
| 20260509173408 | 51 | 309 | 0.0 | 1.0 | 0.00 | 0.00 | 0.00 | 89 | 1023.8 |
| 20260509172541 | 52 | 309 | 0.0 | 0.0 | 0.00 | 0.00 | 0.00 | 89 | 1023.5 |
| 20260509171053 | 52 | 309 | 0.0 | 1.0 | 0.00 | 0.00 | 0.00 | 89 | 1023.7 |
| 20260509164837 | 52 | 309 | 0.0 | 0.0 | 0.00 | 0.00 | 0.00 | 89 | 1023.7 |
| 20260509163332 | 52 | 309 | 0.0 | 2.0 | 0.00 | 0.00 | 0.00 | 89 | 1023.8 |
| 20260509161828 | 52 | 309 | 0.0 | 2.0 | 0.00 | 0.00 | 0.00 | 89 | 1023.8 |
| 20260509160320 | 52 | 13 | 0.0 | 2.0 | 0.00 | 0.00 | 0.00 | 88 | 1023.9 |
| 20260509154820 | 52 | 255 | 0.0 | 0.0 | 0.00 | 0.00 | 0.00 | 88 | 1024.0 |
| 20260509153304 | 52 | 255 | 0.0 | 0.0 | 0.00 | 0.00 | 0.00 | 87 | 1024.0 |
| 20260509151730 | 52 | 255 | 0.0 | 0.0 | 0.00 | 0.00 | 0.00 | 87 | 1024.1 |
| 20260509151630 | 52 | 255 | 0.0 | 0.0 | 0.00 | 0.00 | 0.00 | 87 | 1024.0 |
| 20260509144707 | 52 | 255 | 0.0 | 0.0 | 0.00 | 0.00 | 0.00 | 87 | 1024.1 |
| 20260509141701 | 53 | 255 | 0.0 | 0.0 | 0.00 | 0.00 | 0.00 | 86 | 1024.3 |
| 20260509140201 | 53 | 255 | 0.0 | 0.0 | 0.00 | 0.00 | 0.00 | 86 | 1024.3 |
| 20260509134647 | 53 | 255 | 0.0 | 2.0 | 0.00 | 0.00 | 0.00 | 86 | 1024.5 |
| 20260509133132 | 53 | 255 | 0.0 | 2.0 | 0.00 | 0.00 | 0.00 | 85 | 1024.2 |
| 20260509131614 | 54 | 255 | 0.0 | 0.0 | 0.00 | 0.00 | 0.00 | 85 | 1024.3 |
| 20260509130800 | 54 | 255 | 0.0 | 0.0 | 0.00 | 0.00 | 0.00 | 84 | 1024.3 |
| 20260509124550 | 54 | 255 | 0.0 | 0.0 | 0.00 | 0.00 | 0.00 | 83 | 1024.2 |
| 20260509123048 | 55 | 255 | 0.0 | 0.0 | 0.00 | 0.00 | 0.00 | 83 | 1024.4 |
| 20260509121536 | 55 | 255 | 0.0 | 0.0 | 0.00 | 0.00 | 0.00 | 82 | 1024.5 |
| 20260509120027 | 56 | 255 | 0.0 | 1.0 | 0.00 | 0.00 | 0.00 | 82 | 1024.3 |
| 20260509114526 | 56 | 255 | 0.0 | 0.0 | 0.00 | 0.00 | 0.00 | 82 | 1024.5 |
| 20260509114445 | 57 | 255 | 0.0 | 0.0 | 0.00 | 0.00 | 0.00 | 81 | 1024.6 |
| 20260509112924 | 57 | 255 | 0.0 | 0.0 | 0.00 | 0.00 | 0.00 | 80 | 1024.6 |
| 20260509110025 | 58 | 255 | 0.0 | 1.0 | 0.00 | 0.00 | 0.00 | 80 | 1024.4 |
| 20260509104520 | 58 | 255 | 0.0 | 1.0 | 0.00 | 0.00 | 0.00 | 79 | 1024.4 |
| 20260509103020 | 59 | 255 | 0.0 | 2.0 | 0.00 | 0.00 | 0.00 | 78 | 1024.4 |
| 20260509102220 | 59 | 255 | 0.0 | 0.0 | 0.00 | 0.00 | 0.00 | 77 | 1024.2 |
| 20260509100023 | 60 | 255 | 0.0 | 0.0 | 0.00 | 0.00 | 0.00 | 75 | 1023.9 |
| 20260509094509 | 60 | 255 | 0.0 | 0.0 | 0.00 | 0.00 | 0.00 | 75 | 1023.9 |
| 20260509093009 | 61 | 255 | 0.0 | 2.0 | 0.00 | 0.00 | 0.00 | 74 | 1023.9 |
| 20260509091451 | 62 | 255 | 0.0 | 2.0 | 0.00 | 0.00 | 0.00 | 74 | 1023.8 |
| 20260509090654 | 62 | 255 | 1.0 | 3.0 | 0.00 | 0.00 | 0.00 | 73 | 1023.5 |
| 20260509084445 | 63 | 255 | 0.0 | 2.0 | 0.00 | 0.00 | 0.00 | 70 | 1023.3 |
| 20260509082932 | 63 | 261 | 0.0 | 3.0 | 0.00 | 0.00 | 0.00 | 69 | 1023.2 |
| 20260509074358 | 67 | 119 | 0.0 | 2.0 | 0.00 | 0.00 | 0.00 | 62 | 1022.9 |
| 20260509072904 | 69 | 119 | 0.0 | 0.0 | 0.00 | 0.00 | 0.00 | 59 | 1022.6 |
| 20260509072056 | 70 | 119 | 0.0 | 0.0 | 0.00 | 0.00 | 0.00 | 57 | 1022.6 |
| 20260509065838 | 71 | 119 | 0.0 | 0.0 | 0.00 | 0.00 | 0.00 | 55 | 1022.2 |
| 20260509064338 | 72 | 119 | 1.0 | 5.0 | 0.00 | 0.00 | 0.00 | 53 | 1022.1 |
| 20260509063502 | 72 | 86 | 2.0 | 7.0 | 0.00 | 0.00 | 0.00 | 52 | 1021.9 |
| 20260509061307 | 73 | 59 | 2.0 | 4.0 | 0.00 | 0.00 | 0.00 | 51 | 1021.8 |
| 20260509055813 | 73 | 52 | 1.0 | 6.0 | 0.00 | 0.00 | 0.00 | 49 | 1021.7 |
| 20260509054255 | 74 | 74 | 3.0 | 7.0 | 0.00 | 0.00 | 0.00 | 47 | 1021.9 |
| 20260509052750 | 75 | 65 | 1.0 | 7.0 | 0.00 | 0.00 | 0.00 | 46 | 1021.8 |
| 20260509051251 | 75 | 65 | 2.0 | 7.0 | 0.00 | 0.00 | 0.00 | 47 | 1021.8 |
| 20260509045734 | 75 | 25 | 2.0 | 7.0 | 0.00 | 0.00 | 0.00 | 43 | 1021.7 |
| 20260509044231 | 76 | 121 | 2.0 | 9.0 | 0.00 | 0.00 | 0.00 | 45 | 1021.6 |
| 20260509042721 | 76 | 201 | 2.0 | 10.0 | 0.00 | 0.00 | 0.00 | 43 | 1021.5 |
| 20260509041220 | 76 | 24 | 2.0 | 8.0 | 0.00 | 0.00 | 0.00 | 43 | 1021.6 |
| 20260509035710 | 75 | 0 | 3.0 | 9.0 | 0.00 | 0.00 | 0.00 | 42 | 1021.5 |
| 20260509034207 | 75 | 27 | 3.0 | 9.0 | 0.00 | 0.00 | 0.00 | 46 | 1021.6 |
| 20260509032705 | 76 | 332 | 2.0 | 10.0 | 0.00 | 0.00 | 0.00 | 47 | 1021.8 |
| 20260509031200 | 74 | 66 | 1.0 | 5.0 | 0.00 | 0.00 | 0.00 | 50 | 1021.7 |
| 20260509025642 | 76 | 83 | 2.0 | 6.0 | 0.00 | 0.00 | 0.00 | 47 | 1021.9 |
| 20260509024141 | 73 | 101 | 1.0 | 7.0 | 0.00 | 0.00 | 0.00 | 50 | 1022.1 |
| 20260509022622 | 75 | 69 | 2.0 | 5.0 | 0.00 | 0.00 | 0.00 | 49 | 1022.2 |
| 20260509021124 | 77 | 145 | 2.0 | 7.0 | 0.00 | 0.00 | 0.00 | 45 | 1022.5 |
| 20260509020321 | 74 | 317 | 1.0 | 7.0 | 0.00 | 0.00 | 0.00 | 49 | 1022.5 |
| 20260509014803 | 76 | 92 | 2.0 | 8.0 | 0.00 | 0.00 | 0.00 | 47 | 1022.7 |
| 20260509014003 | 74 | 16 | 1.0 | 5.0 | 0.00 | 0.00 | 0.00 | 53 | 1023.0 |
| 20260509011809 | 74 | 92 | 2.0 | 7.0 | 0.00 | 0.00 | 0.00 | 50 | 1023.0 |
| 20260509005550 | 75 | 68 | 2.0 | 6.0 | 0.00 | 0.00 | 0.00 | 53 | 1023.2 |
| 20260509004028 | 74 | 194 | 2.0 | 9.0 | 0.00 | 0.00 | 0.00 | 54 | 1023.1 |
| 20260509001022 | 72 | 207 | 3.0 | 8.0 | 0.00 | 0.00 | 0.00 | 55 | 1023.2 |
| 20260508235508 | 70 | 264 | 1.0 | 5.0 | 0.00 | 0.00 | 0.00 | 59 | 1023.1 |
| 20260508233956 | 67 | 30 | 2.0 | 4.0 | 0.00 | 0.00 | 0.00 | 69 | 1023.1 |
| 20260508232502 | 64 | 11 | 0.0 | 2.0 | 0.00 | 0.00 | 0.00 | 73 | 1022.9 |
| 20260508231000 | 62 | 309 | 1.0 | 2.0 | 0.00 | 0.00 | 0.00 | 76 | 1023.1 |
| 20260508225455 | 60 | 11 | 0.0 | 2.0 | 0.00 | 0.00 | 0.00 | 77 | 1022.8 |
| 20260508224657 | 59 | 294 | 0.0 | 0.0 | 0.00 | 0.00 | 0.00 | 78 | 1022.7 |